Impacts TAF Board INFO
FOR SITUATIONAL AWARENESS. NOT TO BE USED FOR FLIGHT PLANNING PURPOSES.
IDs:

KTPA - Tampa Intl Arpt, FL, US

Issued at 0318 UTC 23 Nov 2017
Updated at 0343 UTC 23 Nov 2017
Potential Impact None Slight Moderate High
Time0316Z 23/04Z 23/05Z 23/06Z 23/07Z 23/08Z 23/09Z 23/10Z 23/11Z 23/12Z 23/13Z 23/14Z 23/15Z 23/16Z>>
Type OBS PRVL PRVL PRVL PRVL PRVL PRVL PRVL PRVL PRVL PRVL PRVL PRVL PRVL
VIS 10 >6 >6 >6 >6 >6 >6 >6 >6 5 5 5 5 6
CIG 95 70 70 70 70 25 25 25 25 25 25 25 25 35
Cover OVC BKN BKN BKN BKN OVC OVC OVC OVC OVC OVC OVC OVC BKN
FltCat VFR VFR VFR VFR VFR MVFR MVFR MVFR MVFR MVFR MVFR MVFR MVFR VFR
WX -- VCSH VCSH VCSH VCSH VCSH VCSH VCSH VCSH SHRA VCTS SHRA VCTS SHRA VCTS SHRA VCTS SHRA VCTS
WDir 100 80 80 80 80 100 100 100 100 160 160 160 160 230
WSpd 3 6 6 6 6 6 6 6 6 7 7 7 7 8
WGst -- -- -- -- -- -- -- -- -- -- -- -- -- --

Raw TAF
KTPA 230318Z 2303/2406 08006KT P6SM VCSH SCT045 BKN070 BKN120
  FM230800 10006KT P6SM VCSH SCT015 BKN025 OVC100
  FM231200 16007KT 5SM SHRA VCTS SCT015 BKN025CB OVC070
  FM231600 23008KT 6SM SHRA VCTS SCT020CB BKN035


Raw METAR
KTPA 230316Z 10003KT 10SM FEW045 SCT075 OVC095 22/18 A2998 RMK AO2 RAE0255 TSE16 P0000 T02220183
KTPA 230253Z 08005KT 10SM -TSRA FEW045CB SCT080 OVC110 22/18 A2997 RMK AO2 RAB24 TSB30 SLP148 OCNL LTGICCG VC SW AND NW TS VC SW AND NW MOV N P0002 60002 T02220183 53007
KTPA 230230Z 09006KT 8SM -TSRA FEW045CB SCT090 OVC110 23/18 A2997 RMK AO2 LTG DSNT SW RAB24 TSB30 OCNL LTGICCG VC SW TS VC SW MOV N P0000 T02280178
KTPA 230223Z 09008G15KT 10SM VCTS FEW045 SCT090 OVC110 23/18 A2996 RMK AO2 LTG DSNT S AND SW CB SW T02330178
KTPA 230153Z VRB05KT 10SM BKN080 OVC140 23/18 A2996 RMK AO2 SLP144 T02330178
KTPA 230053Z 04004KT 10SM BKN060 OVC180 24/17 A2996 RMK AO2 SLP144 T02440172

METAR Board
Radar Display
Forecast Discussion

FOR SITUATIONAL AWARENESS. NOT TO BE USED FOR FLIGHT PLANNING PURPOSES.